sensor_id;sensor_type;location;lat;lon;timestamp;P1;durP1;ratioP1;P2;durP2;ratioP2
36745;SDS011;22715;52.182;21.206;2023-03-11T00:00:39;23.38;;;14.13;;
36745;SDS011;22715;52.182;21.206;2023-03-11T00:03:05;17.73;;;11.32;;
36745;SDS011;22715;52.182;21.206;2023-03-11T00:05:38;22.65;;;13.85;;
36745;SDS011;22715;52.182;21.206;2023-03-11T00:08:05;17.85;;;12.15;;
36745;SDS011;22715;52.182;21.206;2023-03-11T00:10:32;19.20;;;13.65;;
36745;SDS011;22715;52.182;21.206;2023-03-11T00:12:58;18.75;;;12.55;;
36745;SDS011;22715;52.182;21.206;2023-03-11T00:15:24;18.65;;;11.98;;
36745;SDS011;22715;52.182;21.206;2023-03-11T00:17:49;20.45;;;13.23;;
36745;SDS011;22715;52.182;21.206;2023-03-11T00:20:19;16.35;;;11.80;;
36745;SDS011;22715;52.182;21.206;2023-03-11T00:22:45;26.40;;;13.75;;
36745;SDS011;22715;52.182;21.206;2023-03-11T00:25:11;21.25;;;12.48;;
36745;SDS011;22715;52.182;21.206;2023-03-11T00:27:37;23.10;;;13.65;;
36745;SDS011;22715;52.182;21.206;2023-03-11T00:30:03;20.48;;;11.85;;
36745;SDS011;22715;52.182;21.206;2023-03-11T00:32:28;19.17;;;11.57;;
36745;SDS011;22715;52.182;21.206;2023-03-11T00:34:54;19.13;;;12.23;;
36745;SDS011;22715;52.182;21.206;2023-03-11T00:37:19;21.63;;;13.13;;
36745;SDS011;22715;52.182;21.206;2023-03-11T00:39:44;20.60;;;11.70;;
36745;SDS011;22715;52.182;21.206;2023-03-11T00:42:10;19.33;;;11.38;;
36745;SDS011;22715;52.182;21.206;2023-03-11T00:44:35;18.48;;;10.43;;
36745;SDS011;22715;52.182;21.206;2023-03-11T00:47:00;19.67;;;11.88;;
36745;SDS011;22715;52.182;21.206;2023-03-11T00:49:26;14.93;;;11.45;;
36745;SDS011;22715;52.182;21.206;2023-03-11T00:51:51;19.60;;;13.07;;
36745;SDS011;22715;52.182;21.206;2023-03-11T00:54:16;23.13;;;12.77;;
36745;SDS011;22715;52.182;21.206;2023-03-11T00:56:42;16.98;;;9.70;;
36745;SDS011;22715;52.182;21.206;2023-03-11T00:59:07;21.77;;;10.40;;
36745;SDS011;22715;52.182;21.206;2023-03-11T01:01:33;16.67;;;11.27;;
36745;SDS011;22715;52.182;21.206;2023-03-11T01:03:59;15.35;;;11.02;;
36745;SDS011;22715;52.182;21.206;2023-03-11T01:06:24;19.65;;;10.85;;
36745;SDS011;22715;52.182;21.206;2023-03-11T01:08:49;18.25;;;10.80;;
36745;SDS011;22715;52.182;21.206;2023-03-11T01:11:17;15.40;;;11.32;;
36745;SDS011;22715;52.182;21.206;2023-03-11T01:13:43;15.23;;;11.27;;
36745;SDS011;22715;52.182;21.206;2023-03-11T01:16:08;16.38;;;10.55;;
36745;SDS011;22715;52.182;21.206;2023-03-11T01:18:33;16.80;;;10.10;;
36745;SDS011;22715;52.182;21.206;2023-03-11T01:20:59;17.35;;;10.00;;
36745;SDS011;22715;52.182;21.206;2023-03-11T01:23:24;14.07;;;8.60;;
36745;SDS011;22715;52.182;21.206;2023-03-11T01:25:50;13.88;;;9.82;;
36745;SDS011;22715;52.182;21.206;2023-03-11T01:28:15;14.85;;;8.95;;
36745;SDS011;22715;52.182;21.206;2023-03-11T01:30:41;19.65;;;9.55;;
36745;SDS011;22715;52.182;21.206;2023-03-11T01:33:06;13.48;;;9.90;;
36745;SDS011;22715;52.182;21.206;2023-03-11T01:35:33;13.35;;;8.73;;
36745;SDS011;22715;52.182;21.206;2023-03-11T01:37:59;16.20;;;9.60;;
36745;SDS011;22715;52.182;21.206;2023-03-11T01:42:53;13.85;;;8.35;;
36745;SDS011;22715;52.182;21.206;2023-03-11T01:47:53;11.30;;;7.70;;
36745;SDS011;22715;52.182;21.206;2023-03-11T01:50:18;15.43;;;7.88;;
36745;SDS011;22715;52.182;21.206;2023-03-11T01:52:44;13.15;;;9.23;;
36745;SDS011;22715;52.182;21.206;2023-03-11T01:55:10;13.45;;;8.75;;
36745;SDS011;22715;52.182;21.206;2023-03-11T01:57:36;15.68;;;8.88;;
36745;SDS011;22715;52.182;21.206;2023-03-11T02:00:03;15.73;;;8.45;;
36745;SDS011;22715;52.182;21.206;2023-03-11T02:02:34;13.48;;;9.35;;
36745;SDS011;22715;52.182;21.206;2023-03-11T02:05:01;10.68;;;7.68;;
36745;SDS011;22715;52.182;21.206;2023-03-11T02:07:27;12.48;;;7.60;;
36745;SDS011;22715;52.182;21.206;2023-03-11T02:09:53;13.27;;;8.02;;
36745;SDS011;22715;52.182;21.206;2023-03-11T02:12:18;9.18;;;6.85;;
36745;SDS011;22715;52.182;21.206;2023-03-11T02:14:48;9.90;;;6.78;;
36745;SDS011;22715;52.182;21.206;2023-03-11T02:17:14;9.15;;;7.00;;
36745;SDS011;22715;52.182;21.206;2023-03-11T02:22:23;15.40;;;7.60;;
36745;SDS011;22715;52.182;21.206;2023-03-11T02:24:54;13.88;;;6.85;;
36745;SDS011;22715;52.182;21.206;2023-03-11T02:27:23;11.05;;;7.65;;
36745;SDS011;22715;52.182;21.206;2023-03-11T02:29:50;13.05;;;7.25;;
36745;SDS011;22715;52.182;21.206;2023-03-11T02:32:18;10.10;;;7.30;;
36745;SDS011;22715;52.182;21.206;2023-03-11T02:34:43;12.82;;;8.32;;
36745;SDS011;22715;52.182;21.206;2023-03-11T02:37:10;16.83;;;8.23;;
36745;SDS011;22715;52.182;21.206;2023-03-11T02:39:40;9.45;;;6.47;;
36745;SDS011;22715;52.182;21.206;2023-03-11T02:44:37;9.63;;;6.47;;
36745;SDS011;22715;52.182;21.206;2023-03-11T02:47:03;11.73;;;8.00;;
36745;SDS011;22715;52.182;21.206;2023-03-11T02:49:28;12.40;;;7.47;;
36745;SDS011;22715;52.182;21.206;2023-03-11T02:51:54;13.98;;;8.00;;
36745;SDS011;22715;52.182;21.206;2023-03-11T02:54:19;10.52;;;7.53;;
36745;SDS011;22715;52.182;21.206;2023-03-11T02:56:44;11.90;;;7.75;;
36745;SDS011;22715;52.182;21.206;2023-03-11T02:59:10;12.82;;;7.72;;
36745;SDS011;22715;52.182;21.206;2023-03-11T03:01:35;9.75;;;7.95;;
36745;SDS011;22715;52.182;21.206;2023-03-11T03:04:00;10.57;;;6.60;;
36745;SDS011;22715;52.182;21.206;2023-03-11T03:06:26;10.55;;;6.30;;
36745;SDS011;22715;52.182;21.206;2023-03-11T03:08:54;10.18;;;7.45;;
36745;SDS011;22715;52.182;21.206;2023-03-11T03:11:19;12.07;;;7.28;;
36745;SDS011;22715;52.182;21.206;2023-03-11T03:13:45;11.35;;;7.75;;
36745;SDS011;22715;52.182;21.206;2023-03-11T03:16:11;14.20;;;7.35;;
36745;SDS011;22715;52.182;21.206;2023-03-11T03:18:36;10.50;;;6.75;;
36745;SDS011;22715;52.182;21.206;2023-03-11T03:21:02;10.15;;;6.25;;
36745;SDS011;22715;52.182;21.206;2023-03-11T03:23:27;9.48;;;6.80;;
36745;SDS011;22715;52.182;21.206;2023-03-11T03:25:53;10.32;;;7.80;;
36745;SDS011;22715;52.182;21.206;2023-03-11T03:28:18;13.68;;;7.40;;
36745;SDS011;22715;52.182;21.206;2023-03-11T03:30:46;7.13;;;6.10;;
36745;SDS011;22715;52.182;21.206;2023-03-11T03:33:12;9.07;;;6.13;;
36745;SDS011;22715;52.182;21.206;2023-03-11T03:35:41;10.85;;;7.90;;
36745;SDS011;22715;52.182;21.206;2023-03-11T03:38:16;7.93;;;6.30;;
36745;SDS011;22715;52.182;21.206;2023-03-11T03:40:44;12.20;;;7.55;;
36745;SDS011;22715;52.182;21.206;2023-03-11T03:43:10;9.57;;;6.60;;
36745;SDS011;22715;52.182;21.206;2023-03-11T03:45:38;12.10;;;7.53;;
36745;SDS011;22715;52.182;21.206;2023-03-11T03:48:04;9.77;;;7.68;;
36745;SDS011;22715;52.182;21.206;2023-03-11T03:50:29;10.70;;;6.57;;
36745;SDS011;22715;52.182;21.206;2023-03-11T03:52:54;12.60;;;7.70;;
36745;SDS011;22715;52.182;21.206;2023-03-11T03:55:20;11.77;;;7.07;;
36745;SDS011;22715;52.182;21.206;2023-03-11T03:57:45;12.13;;;7.05;;
36745;SDS011;22715;52.182;21.206;2023-03-11T04:00:10;14.32;;;6.90;;
36745;SDS011;22715;52.182;21.206;2023-03-11T04:02:36;11.88;;;7.18;;
36745;SDS011;22715;52.182;21.206;2023-03-11T04:05:01;11.65;;;8.05;;
36745;SDS011;22715;52.182;21.206;2023-03-11T04:07:27;12.05;;;6.88;;
36745;SDS011;22715;52.182;21.206;2023-03-11T04:09:52;14.30;;;8.57;;
36745;SDS011;22715;52.182;21.206;2023-03-11T04:12:17;12.25;;;7.47;;
36745;SDS011;22715;52.182;21.206;2023-03-11T04:14:43;11.80;;;7.65;;
36745;SDS011;22715;52.182;21.206;2023-03-11T04:17:10;13.52;;;7.10;;
36745;SDS011;22715;52.182;21.206;2023-03-11T04:19:35;10.65;;;7.32;;
36745;SDS011;22715;52.182;21.206;2023-03-11T04:22:04;8.93;;;6.85;;
36745;SDS011;22715;52.182;21.206;2023-03-11T04:24:29;13.57;;;7.30;;
36745;SDS011;22715;52.182;21.206;2023-03-11T04:26:55;10.18;;;7.20;;
36745;SDS011;22715;52.182;21.206;2023-03-11T04:29:20;11.00;;;6.18;;
36745;SDS011;22715;52.182;21.206;2023-03-11T04:31:46;10.18;;;7.90;;
36745;SDS011;22715;52.182;21.206;2023-03-11T04:34:11;13.50;;;7.93;;
36745;SDS011;22715;52.182;21.206;2023-03-11T04:36:36;11.95;;;7.07;;
36745;SDS011;22715;52.182;21.206;2023-03-11T04:39:02;15.68;;;7.78;;
36745;SDS011;22715;52.182;21.206;2023-03-11T04:41:27;11.70;;;6.72;;
36745;SDS011;22715;52.182;21.206;2023-03-11T04:43:53;13.50;;;8.50;;
36745;SDS011;22715;52.182;21.206;2023-03-11T04:46:18;16.17;;;7.70;;
36745;SDS011;22715;52.182;21.206;2023-03-11T04:48:43;15.23;;;9.00;;
36745;SDS011;22715;52.182;21.206;2023-03-11T04:51:09;16.15;;;8.68;;
36745;SDS011;22715;52.182;21.206;2023-03-11T04:53:34;13.52;;;6.38;;
36745;SDS011;22715;52.182;21.206;2023-03-11T04:56:00;15.15;;;8.50;;
36745;SDS011;22715;52.182;21.206;2023-03-11T04:58:25;16.15;;;8.90;;
36745;SDS011;22715;52.182;21.206;2023-03-11T05:00:50;13.55;;;7.35;;
36745;SDS011;22715;52.182;21.206;2023-03-11T05:03:16;10.45;;;7.47;;
36745;SDS011;22715;52.182;21.206;2023-03-11T05:05:41;15.50;;;8.90;;
36745;SDS011;22715;52.182;21.206;2023-03-11T05:08:07;14.20;;;10.52;;
36745;SDS011;22715;52.182;21.206;2023-03-11T05:10:32;14.25;;;8.40;;
36745;SDS011;22715;52.182;21.206;2023-03-11T05:12:57;15.68;;;8.20;;
36745;SDS011;22715;52.182;21.206;2023-03-11T05:15:23;14.18;;;8.57;;
36745;SDS011;22715;52.182;21.206;2023-03-11T05:17:48;11.32;;;7.85;;
36745;SDS011;22715;52.182;21.206;2023-03-11T05:20:13;16.05;;;9.10;;
36745;SDS011;22715;52.182;21.206;2023-03-11T05:22:39;15.55;;;8.70;;
36745;SDS011;22715;52.182;21.206;2023-03-11T05:25:05;12.38;;;8.45;;
36745;SDS011;22715;52.182;21.206;2023-03-11T05:27:33;10.57;;;7.97;;
36745;SDS011;22715;52.182;21.206;2023-03-11T05:29:59;12.52;;;9.02;;
36745;SDS011;22715;52.182;21.206;2023-03-11T05:32:24;16.08;;;8.48;;
36745;SDS011;22715;52.182;21.206;2023-03-11T05:34:49;18.50;;;10.75;;
36745;SDS011;22715;52.182;21.206;2023-03-11T05:37:16;17.17;;;9.10;;
36745;SDS011;22715;52.182;21.206;2023-03-11T05:39:41;11.75;;;7.45;;
36745;SDS011;22715;52.182;21.206;2023-03-11T05:42:06;11.32;;;8.90;;
36745;SDS011;22715;52.182;21.206;2023-03-11T05:44:32;13.90;;;8.52;;
36745;SDS011;22715;52.182;21.206;2023-03-11T05:46:57;15.27;;;8.13;;
36745;SDS011;22715;52.182;21.206;2023-03-11T05:49:23;10.60;;;8.27;;
36745;SDS011;22715;52.182;21.206;2023-03-11T05:51:49;12.10;;;7.63;;
36745;SDS011;22715;52.182;21.206;2023-03-11T05:54:20;13.40;;;7.97;;
36745;SDS011;22715;52.182;21.206;2023-03-11T05:56:48;11.65;;;8.15;;
36745;SDS011;22715;52.182;21.206;2023-03-11T05:59:14;10.35;;;7.57;;
36745;SDS011;22715;52.182;21.206;2023-03-11T06:01:40;13.10;;;9.13;;
36745;SDS011;22715;52.182;21.206;2023-03-11T06:04:05;13.23;;;8.88;;
36745;SDS011;22715;52.182;21.206;2023-03-11T06:06:31;15.00;;;8.85;;
36745;SDS011;22715;52.182;21.206;2023-03-11T06:08:56;16.20;;;10.13;;
36745;SDS011;22715;52.182;21.206;2023-03-11T06:11:22;11.40;;;8.70;;
36745;SDS011;22715;52.182;21.206;2023-03-11T06:13:51;18.58;;;9.63;;
36745;SDS011;22715;52.182;21.206;2023-03-11T06:16:17;12.55;;;9.32;;
36745;SDS011;22715;52.182;21.206;2023-03-11T06:18:42;17.65;;;9.65;;
36745;SDS011;22715;52.182;21.206;2023-03-11T06:21:08;10.98;;;8.10;;
36745;SDS011;22715;52.182;21.206;2023-03-11T06:23:36;18.08;;;9.82;;
36745;SDS011;22715;52.182;21.206;2023-03-11T06:26:03;14.40;;;8.75;;
36745;SDS011;22715;52.182;21.206;2023-03-11T06:28:29;15.80;;;10.15;;
36745;SDS011;22715;52.182;21.206;2023-03-11T06:30:54;16.73;;;9.02;;
36745;SDS011;22715;52.182;21.206;2023-03-11T06:33:25;14.77;;;8.93;;
36745;SDS011;22715;52.182;21.206;2023-03-11T06:35:57;14.55;;;8.80;;
36745;SDS011;22715;52.182;21.206;2023-03-11T06:38:23;17.38;;;9.20;;
36745;SDS011;22715;52.182;21.206;2023-03-11T06:40:48;15.98;;;8.57;;
36745;SDS011;22715;52.182;21.206;2023-03-11T06:43:13;11.73;;;7.90;;
36745;SDS011;22715;52.182;21.206;2023-03-11T06:45:39;11.35;;;7.85;;
36745;SDS011;22715;52.182;21.206;2023-03-11T06:48:04;13.85;;;7.97;;
36745;SDS011;22715;52.182;21.206;2023-03-11T06:50:35;17.48;;;8.38;;
36745;SDS011;22715;52.182;21.206;2023-03-11T06:53:01;11.25;;;7.30;;
36745;SDS011;22715;52.182;21.206;2023-03-11T06:55:27;13.07;;;6.55;;
36745;SDS011;22715;52.182;21.206;2023-03-11T06:57:52;9.35;;;7.60;;
36745;SDS011;22715;52.182;21.206;2023-03-11T07:00:17;11.48;;;7.40;;
36745;SDS011;22715;52.182;21.206;2023-03-11T07:02:43;9.90;;;6.15;;
36745;SDS011;22715;52.182;21.206;2023-03-11T07:05:08;12.65;;;7.07;;
36745;SDS011;22715;52.182;21.206;2023-03-11T07:07:34;7.80;;;5.38;;
36745;SDS011;22715;52.182;21.206;2023-03-11T07:09:59;11.27;;;6.38;;
36745;SDS011;22715;52.182;21.206;2023-03-11T07:12:24;11.80;;;6.68;;
36745;SDS011;22715;52.182;21.206;2023-03-11T07:14:54;7.65;;;5.70;;
36745;SDS011;22715;52.182;21.206;2023-03-11T07:17:19;7.85;;;5.35;;
36745;SDS011;22715;52.182;21.206;2023-03-11T07:19:48;8.52;;;5.50;;
36745;SDS011;22715;52.182;21.206;2023-03-11T07:22:14;8.02;;;4.65;;
36745;SDS011;22715;52.182;21.206;2023-03-11T07:24:39;7.93;;;4.72;;
36745;SDS011;22715;52.182;21.206;2023-03-11T07:27:04;10.15;;;6.53;;
36745;SDS011;22715;52.182;21.206;2023-03-11T07:29:30;11.27;;;5.82;;
36745;SDS011;22715;52.182;21.206;2023-03-11T07:31:55;10.75;;;5.90;;
36745;SDS011;22715;52.182;21.206;2023-03-11T07:34:20;6.45;;;4.97;;
36745;SDS011;22715;52.182;21.206;2023-03-11T07:36:46;8.48;;;5.80;;
36745;SDS011;22715;52.182;21.206;2023-03-11T07:39:12;7.57;;;5.55;;
36745;SDS011;22715;52.182;21.206;2023-03-11T07:41:38;8.77;;;5.90;;
36745;SDS011;22715;52.182;21.206;2023-03-11T07:44:03;8.23;;;5.63;;
36745;SDS011;22715;52.182;21.206;2023-03-11T07:46:29;8.18;;;5.70;;
36745;SDS011;22715;52.182;21.206;2023-03-11T07:48:56;8.45;;;6.30;;
36745;SDS011;22715;52.182;21.206;2023-03-11T07:51:26;7.75;;;6.15;;
36745;SDS011;22715;52.182;21.206;2023-03-11T07:53:53;8.75;;;5.20;;
36745;SDS011;22715;52.182;21.206;2023-03-11T07:56:18;9.68;;;6.10;;
36745;SDS011;22715;52.182;21.206;2023-03-11T07:58:44;7.53;;;6.20;;
36745;SDS011;22715;52.182;21.206;2023-03-11T08:01:20;8.00;;;5.90;;
36745;SDS011;22715;52.182;21.206;2023-03-11T08:03:47;9.73;;;7.63;;
36745;SDS011;22715;52.182;21.206;2023-03-11T08:06:18;10.40;;;7.25;;
36745;SDS011;22715;52.182;21.206;2023-03-11T08:08:44;9.77;;;6.75;;
36745;SDS011;22715;52.182;21.206;2023-03-11T08:11:09;12.73;;;8.68;;
36745;SDS011;22715;52.182;21.206;2023-03-11T08:13:37;11.35;;;7.47;;
36745;SDS011;22715;52.182;21.206;2023-03-11T08:16:03;14.77;;;8.55;;
36745;SDS011;22715;52.182;21.206;2023-03-11T08:18:28;12.35;;;7.53;;
36745;SDS011;22715;52.182;21.206;2023-03-11T08:20:55;10.38;;;7.97;;
36745;SDS011;22715;52.182;21.206;2023-03-11T08:23:20;10.27;;;8.40;;
36745;SDS011;22715;52.182;21.206;2023-03-11T08:25:45;12.35;;;8.68;;
36745;SDS011;22715;52.182;21.206;2023-03-11T08:28:11;13.15;;;7.63;;
36745;SDS011;22715;52.182;21.206;2023-03-11T08:30:36;10.30;;;7.72;;
36745;SDS011;22715;52.182;21.206;2023-03-11T08:33:01;13.77;;;8.02;;
36745;SDS011;22715;52.182;21.206;2023-03-11T08:35:27;8.82;;;7.65;;
36745;SDS011;22715;52.182;21.206;2023-03-11T08:37:52;9.32;;;7.55;;
36745;SDS011;22715;52.182;21.206;2023-03-11T08:40:18;8.60;;;6.13;;
36745;SDS011;22715;52.182;21.206;2023-03-11T08:42:43;8.38;;;6.90;;
36745;SDS011;22715;52.182;21.206;2023-03-11T08:45:09;9.65;;;7.25;;
36745;SDS011;22715;52.182;21.206;2023-03-11T08:47:35;9.65;;;7.25;;
36745;SDS011;22715;52.182;21.206;2023-03-11T08:50:00;8.70;;;7.47;;
36745;SDS011;22715;52.182;21.206;2023-03-11T08:52:26;11.05;;;8.38;;
36745;SDS011;22715;52.182;21.206;2023-03-11T08:54:51;10.43;;;6.97;;
36745;SDS011;22715;52.182;21.206;2023-03-11T08:57:16;11.10;;;7.32;;
36745;SDS011;22715;52.182;21.206;2023-03-11T08:59:42;11.18;;;7.97;;
36745;SDS011;22715;52.182;21.206;2023-03-11T09:02:08;11.20;;;7.72;;
36745;SDS011;22715;52.182;21.206;2023-03-11T09:04:34;10.35;;;8.50;;
36745;SDS011;22715;52.182;21.206;2023-03-11T09:06:59;10.95;;;8.13;;
36745;SDS011;22715;52.182;21.206;2023-03-11T09:09:24;11.88;;;9.40;;
36745;SDS011;22715;52.182;21.206;2023-03-11T09:11:50;11.52;;;8.70;;
36745;SDS011;22715;52.182;21.206;2023-03-11T09:14:21;10.38;;;7.57;;
36745;SDS011;22715;52.182;21.206;2023-03-11T09:16:46;10.63;;;8.45;;
36745;SDS011;22715;52.182;21.206;2023-03-11T09:19:11;11.73;;;8.23;;
36745;SDS011;22715;52.182;21.206;2023-03-11T09:21:37;11.88;;;8.45;;
36745;SDS011;22715;52.182;21.206;2023-03-11T09:24:03;13.68;;;9.70;;
36745;SDS011;22715;52.182;21.206;2023-03-11T09:26:57;14.25;;;9.38;;
36745;SDS011;22715;52.182;21.206;2023-03-11T09:29:22;16.15;;;11.27;;
36745;SDS011;22715;52.182;21.206;2023-03-11T09:31:51;15.15;;;9.93;;
36745;SDS011;22715;52.182;21.206;2023-03-11T09:34:59;13.63;;;9.98;;
36745;SDS011;22715;52.182;21.206;2023-03-11T09:37:23;18.85;;;10.88;;
36745;SDS011;22715;52.182;21.206;2023-03-11T09:39:51;15.30;;;10.13;;
36745;SDS011;22715;52.182;21.206;2023-03-11T09:42:24;13.68;;;10.07;;
36745;SDS011;22715;52.182;21.206;2023-03-11T09:44:56;15.70;;;9.98;;
36745;SDS011;22715;52.182;21.206;2023-03-11T09:47:28;15.13;;;11.25;;
36745;SDS011;22715;52.182;21.206;2023-03-11T09:56:02;14.90;;;11.38;;
36745;SDS011;22715;52.182;21.206;2023-03-11T09:58:03;16.30;;;10.80;;
36745;SDS011;22715;52.182;21.206;2023-03-11T10:00:32;19.27;;;11.88;;
36745;SDS011;22715;52.182;21.206;2023-03-11T10:02:57;17.55;;;11.77;;
36745;SDS011;22715;52.182;21.206;2023-03-11T10:05:28;17.85;;;11.30;;
36745;SDS011;22715;52.182;21.206;2023-03-11T10:08:04;27.60;;;16.67;;
36745;SDS011;22715;52.182;21.206;2023-03-11T10:10:37;24.77;;;16.83;;
36745;SDS011;22715;52.182;21.206;2023-03-11T10:28:26;27.55;;;17.65;;
36745;SDS011;22715;52.182;21.206;2023-03-11T10:31:02;24.67;;;16.83;;
36745;SDS011;22715;52.182;21.206;2023-03-11T10:35:59;32.53;;;19.08;;
36745;SDS011;22715;52.182;21.206;2023-03-11T10:38:47;29.73;;;16.87;;
36745;SDS011;22715;52.182;21.206;2023-03-11T10:44:06;31.13;;;15.40;;
36745;SDS011;22715;52.182;21.206;2023-03-11T10:46:35;29.90;;;14.43;;
36745;SDS011;22715;52.182;21.206;2023-03-11T10:49:00;23.40;;;14.50;;
36745;SDS011;22715;52.182;21.206;2023-03-11T10:51:35;26.08;;;13.45;;
36745;SDS011;22715;52.182;21.206;2023-03-11T10:54:02;25.80;;;13.73;;
36745;SDS011;22715;52.182;21.206;2023-03-11T10:56:33;19.38;;;12.63;;
36745;SDS011;22715;52.182;21.206;2023-03-11T10:58:59;20.85;;;11.13;;
36745;SDS011;22715;52.182;21.206;2023-03-11T11:01:32;22.92;;;11.65;;
36745;SDS011;22715;52.182;21.206;2023-03-11T11:03:59;16.38;;;11.63;;
36745;SDS011;22715;52.182;21.206;2023-03-11T11:06:33;13.43;;;8.65;;
36745;SDS011;22715;52.182;21.206;2023-03-11T11:09:15;17.85;;;7.57;;
36745;SDS011;22715;52.182;21.206;2023-03-11T11:11:41;7.15;;;5.30;;
36745;SDS011;22715;52.182;21.206;2023-03-11T11:14:07;9.35;;;6.75;;
36745;SDS011;22715;52.182;21.206;2023-03-11T11:16:34;9.15;;;5.10;;
36745;SDS011;22715;52.182;21.206;2023-03-11T11:19:09;8.93;;;7.45;;
36745;SDS011;22715;52.182;21.206;2023-03-11T11:21:47;8.82;;;5.82;;
36745;SDS011;22715;52.182;21.206;2023-03-11T11:24:28;10.95;;;7.72;;
36745;SDS011;22715;52.182;21.206;2023-03-11T11:34:43;9.57;;;7.15;;
36745;SDS011;22715;52.182;21.206;2023-03-11T11:37:16;7.70;;;5.88;;
36745;SDS011;22715;52.182;21.206;2023-03-11T11:39:52;7.47;;;5.18;;
36745;SDS011;22715;52.182;21.206;2023-03-11T11:42:18;5.82;;;5.18;;
36745;SDS011;22715;52.182;21.206;2023-03-11T11:44:45;4.82;;;4.38;;
36745;SDS011;22715;52.182;21.206;2023-03-11T11:47:45;6.72;;;4.88;;
36745;SDS011;22715;52.182;21.206;2023-03-11T11:50:03;8.00;;;3.92;;
36745;SDS011;22715;52.182;21.206;2023-03-11T11:52:31;6.22;;;4.53;;
36745;SDS011;22715;52.182;21.206;2023-03-11T11:55:42;6.47;;;4.13;;
36745;SDS011;22715;52.182;21.206;2023-03-11T11:57:47;8.43;;;3.92;;
36745;SDS011;22715;52.182;21.206;2023-03-11T12:00:20;4.55;;;3.67;;
36745;SDS011;22715;52.182;21.206;2023-03-11T12:05:22;3.53;;;3.22;;
36745;SDS011;22715;52.182;21.206;2023-03-11T12:10:44;8.65;;;4.13;;
36745;SDS011;22715;52.182;21.206;2023-03-11T12:15:53;3.90;;;2.80;;
36745;SDS011;22715;52.182;21.206;2023-03-11T12:20:48;4.53;;;3.33;;
36745;SDS011;22715;52.182;21.206;2023-03-11T12:26:22;5.65;;;4.00;;
36745;SDS011;22715;52.182;21.206;2023-03-11T12:29:00;4.82;;;3.72;;
36745;SDS011;22715;52.182;21.206;2023-03-11T12:31:37;4.43;;;3.63;;
36745;SDS011;22715;52.182;21.206;2023-03-11T12:34:05;5.95;;;4.50;;
36745;SDS011;22715;52.182;21.206;2023-03-11T12:36:36;5.05;;;4.53;;
36745;SDS011;22715;52.182;21.206;2023-03-11T12:39:03;5.72;;;4.30;;
36745;SDS011;22715;52.182;21.206;2023-03-11T12:41:39;4.22;;;3.75;;
36745;SDS011;22715;52.182;21.206;2023-03-11T12:44:19;7.22;;;5.40;;
36745;SDS011;22715;52.182;21.206;2023-03-11T12:49:28;8.13;;;5.18;;
36745;SDS011;22715;52.182;21.206;2023-03-11T12:54:41;7.53;;;5.47;;
36745;SDS011;22715;52.182;21.206;2023-03-11T13:07:44;8.40;;;5.25;;
36745;SDS011;22715;52.182;21.206;2023-03-11T13:10:14;8.05;;;6.18;;
36745;SDS011;22715;52.182;21.206;2023-03-11T13:12:47;9.40;;;5.00;;
36745;SDS011;22715;52.182;21.206;2023-03-11T13:15:18;6.78;;;5.15;;
36745;SDS011;22715;52.182;21.206;2023-03-11T13:18:01;7.85;;;4.90;;
36745;SDS011;22715;52.182;21.206;2023-03-11T13:41:34;9.63;;;5.95;;
36745;SDS011;22715;52.182;21.206;2023-03-11T13:46:43;12.27;;;5.55;;
36745;SDS011;22715;52.182;21.206;2023-03-11T13:51:54;8.50;;;6.40;;
36745;SDS011;22715;52.182;21.206;2023-03-11T14:00:06;7.97;;;4.97;;
36745;SDS011;22715;52.182;21.206;2023-03-11T14:07:53;8.80;;;6.28;;
36745;SDS011;22715;52.182;21.206;2023-03-11T14:21:20;8.00;;;6.25;;
36745;SDS011;22715;52.182;21.206;2023-03-11T14:26:22;7.75;;;5.30;;
36745;SDS011;22715;52.182;21.206;2023-03-11T14:31:29;10.75;;;5.95;;
36745;SDS011;22715;52.182;21.206;2023-03-11T14:36:45;7.68;;;6.15;;
36745;SDS011;22715;52.182;21.206;2023-03-11T14:39:38;5.78;;;4.88;;
36745;SDS011;22715;52.182;21.206;2023-03-11T14:45:15;7.32;;;4.85;;
36745;SDS011;22715;52.182;21.206;2023-03-11T14:50:30;10.93;;;5.18;;
36745;SDS011;22715;52.182;21.206;2023-03-11T14:55:31;5.68;;;4.63;;
36745;SDS011;22715;52.182;21.206;2023-03-11T15:01:01;6.13;;;3.90;;
36745;SDS011;22715;52.182;21.206;2023-03-11T15:08:45;7.40;;;4.15;;
36745;SDS011;22715;52.182;21.206;2023-03-11T15:14:08;7.82;;;3.15;;
36745;SDS011;22715;52.182;21.206;2023-03-11T15:16:34;6.65;;;2.78;;
36745;SDS011;22715;52.182;21.206;2023-03-11T15:21:45;5.55;;;4.35;;
36745;SDS011;22715;52.182;21.206;2023-03-11T15:24:17;3.92;;;2.95;;
36745;SDS011;22715;52.182;21.206;2023-03-11T15:38:23;3.17;;;2.45;;
36745;SDS011;22715;52.182;21.206;2023-03-11T15:43:46;5.38;;;3.28;;
36745;SDS011;22715;52.182;21.206;2023-03-11T15:46:12;6.97;;;2.88;;
36745;SDS011;22715;52.182;21.206;2023-03-11T15:48:41;4.53;;;3.40;;
36745;SDS011;22715;52.182;21.206;2023-03-11T15:53:37;3.85;;;2.60;;
36745;SDS011;22715;52.182;21.206;2023-03-11T15:56:13;3.42;;;2.40;;
36745;SDS011;22715;52.182;21.206;2023-03-11T15:58:45;5.40;;;2.70;;
36745;SDS011;22715;52.182;21.206;2023-03-11T16:01:11;5.60;;;3.03;;
36745;SDS011;22715;52.182;21.206;2023-03-11T16:03:39;4.78;;;3.42;;
36745;SDS011;22715;52.182;21.206;2023-03-11T16:06:05;7.47;;;3.38;;
36745;SDS011;22715;52.182;21.206;2023-03-11T16:08:30;6.65;;;3.15;;
36745;SDS011;22715;52.182;21.206;2023-03-11T16:10:55;5.45;;;2.25;;
36745;SDS011;22715;52.182;21.206;2023-03-11T16:13:22;2.53;;;2.25;;
36745;SDS011;22715;52.182;21.206;2023-03-11T16:18:21;5.45;;;2.78;;
36745;SDS011;22715;52.182;21.206;2023-03-11T16:20:47;3.97;;;2.95;;
36745;SDS011;22715;52.182;21.206;2023-03-11T16:23:18;3.70;;;2.75;;
36745;SDS011;22715;52.182;21.206;2023-03-11T16:25:45;3.67;;;2.85;;
36745;SDS011;22715;52.182;21.206;2023-03-11T16:28:14;4.88;;;2.72;;
36745;SDS011;22715;52.182;21.206;2023-03-11T16:30:41;5.00;;;2.50;;
36745;SDS011;22715;52.182;21.206;2023-03-11T16:33:07;5.50;;;2.92;;
36745;SDS011;22715;52.182;21.206;2023-03-11T16:35:32;6.65;;;2.70;;
36745;SDS011;22715;52.182;21.206;2023-03-11T16:38:01;5.90;;;2.80;;
36745;SDS011;22715;52.182;21.206;2023-03-11T16:40:26;5.40;;;2.85;;
36745;SDS011;22715;52.182;21.206;2023-03-11T16:43:11;3.78;;;2.95;;
36745;SDS011;22715;52.182;21.206;2023-03-11T16:45:37;5.05;;;2.58;;
36745;SDS011;22715;52.182;21.206;2023-03-11T16:48:03;5.03;;;2.22;;
36745;SDS011;22715;52.182;21.206;2023-03-11T16:50:29;4.00;;;2.20;;
36745;SDS011;22715;52.182;21.206;2023-03-11T16:53:03;3.05;;;2.15;;
36745;SDS011;22715;52.182;21.206;2023-03-11T16:55:29;4.72;;;2.47;;
36745;SDS011;22715;52.182;21.206;2023-03-11T16:58:02;6.57;;;2.00;;
36745;SDS011;22715;52.182;21.206;2023-03-11T17:00:27;8.90;;;4.05;;
36745;SDS011;22715;52.182;21.206;2023-03-11T17:02:52;4.95;;;2.78;;
36745;SDS011;22715;52.182;21.206;2023-03-11T17:05:21;5.22;;;3.97;;
36745;SDS011;22715;52.182;21.206;2023-03-11T17:07:47;3.67;;;2.58;;
36745;SDS011;22715;52.182;21.206;2023-03-11T17:10:13;3.13;;;2.15;;
36745;SDS011;22715;52.182;21.206;2023-03-11T17:12:38;3.63;;;3.03;;
36745;SDS011;22715;52.182;21.206;2023-03-11T17:15:04;2.97;;;2.03;;
36745;SDS011;22715;52.182;21.206;2023-03-11T17:17:30;5.13;;;2.25;;